sensor_id;sensor_type;location;lat;lon;timestamp;P1;durP1;ratioP1;P2;durP2;ratioP2
4353;SDS011;11018;51.258;6.806;2023-09-19T00:01:32;8.77;;;3.03;;
4353;SDS011;11018;51.258;6.806;2023-09-19T00:03:58;13.35;;;3.72;;
4353;SDS011;11018;51.258;6.806;2023-09-19T00:06:25;17.08;;;3.88;;
4353;SDS011;11018;51.258;6.806;2023-09-19T00:08:51;12.75;;;3.10;;
4353;SDS011;11018;51.258;6.806;2023-09-19T00:11:16;14.13;;;3.00;;
4353;SDS011;11018;51.258;6.806;2023-09-19T00:13:42;16.77;;;3.57;;
4353;SDS011;11018;51.258;6.806;2023-09-19T00:16:08;15.60;;;3.20;;
4353;SDS011;11018;51.258;6.806;2023-09-19T00:18:39;13.07;;;3.78;;
4353;SDS011;11018;51.258;6.806;2023-09-19T00:21:05;16.30;;;3.40;;
4353;SDS011;11018;51.258;6.806;2023-09-19T00:23:32;12.85;;;3.15;;
4353;SDS011;11018;51.258;6.806;2023-09-19T00:25:58;9.15;;;3.20;;
4353;SDS011;11018;51.258;6.806;2023-09-19T00:28:24;13.15;;;3.47;;
4353;SDS011;11018;51.258;6.806;2023-09-19T00:30:51;8.15;;;2.90;;
4353;SDS011;11018;51.258;6.806;2023-09-19T00:33:16;13.77;;;3.70;;
4353;SDS011;11018;51.258;6.806;2023-09-19T00:35:50;13.77;;;3.63;;
4353;SDS011;11018;51.258;6.806;2023-09-19T00:38:17;14.07;;;3.42;;
4353;SDS011;11018;51.258;6.806;2023-09-19T00:40:46;10.25;;;3.45;;
4353;SDS011;11018;51.258;6.806;2023-09-19T00:43:12;16.83;;;3.85;;
4353;SDS011;11018;51.258;6.806;2023-09-19T00:45:39;15.85;;;3.70;;
4353;SDS011;11018;51.258;6.806;2023-09-19T00:48:09;12.43;;;3.60;;
4353;SDS011;11018;51.258;6.806;2023-09-19T00:50:35;15.27;;;3.80;;
4353;SDS011;11018;51.258;6.806;2023-09-19T00:53:01;9.80;;;3.10;;
4353;SDS011;11018;51.258;6.806;2023-09-19T00:55:42;14.05;;;3.22;;
4353;SDS011;11018;51.258;6.806;2023-09-19T00:58:09;11.30;;;3.30;;
4353;SDS011;11018;51.258;6.806;2023-09-19T01:00:35;9.32;;;3.13;;
4353;SDS011;11018;51.258;6.806;2023-09-19T01:03:01;16.45;;;3.38;;
4353;SDS011;11018;51.258;6.806;2023-09-19T01:05:27;14.07;;;3.47;;
4353;SDS011;11018;51.258;6.806;2023-09-19T01:07:53;14.60;;;3.65;;
4353;SDS011;11018;51.258;6.806;2023-09-19T01:10:19;15.10;;;3.50;;
4353;SDS011;11018;51.258;6.806;2023-09-19T01:23:24;15.60;;;2.90;;
4353;SDS011;11018;51.258;6.806;2023-09-19T01:29:13;9.23;;;3.33;;
4353;SDS011;11018;51.258;6.806;2023-09-19T01:31:56;12.50;;;3.63;;
4353;SDS011;11018;51.258;6.806;2023-09-19T01:34:27;16.00;;;3.90;;
4353;SDS011;11018;51.258;6.806;2023-09-19T01:37:29;17.70;;;4.13;;
4353;SDS011;11018;51.258;6.806;2023-09-19T01:39:57;13.82;;;3.67;;
4353;SDS011;11018;51.258;6.806;2023-09-19T01:42:44;10.07;;;3.40;;
4353;SDS011;11018;51.258;6.806;2023-09-19T01:48:54;15.85;;;3.67;;
4353;SDS011;11018;51.258;6.806;2023-09-19T01:50:59;12.15;;;3.35;;
4353;SDS011;11018;51.258;6.806;2023-09-19T01:53:33;18.65;;;3.10;;
4353;SDS011;11018;51.258;6.806;2023-09-19T01:56:01;15.50;;;3.50;;
4353;SDS011;11018;51.258;6.806;2023-09-19T01:58:48;19.02;;;3.42;;
4353;SDS011;11018;51.258;6.806;2023-09-19T02:01:20;13.68;;;3.70;;
4353;SDS011;11018;51.258;6.806;2023-09-19T02:03:49;17.23;;;3.60;;
4353;SDS011;11018;51.258;6.806;2023-09-19T02:06:15;13.23;;;3.90;;
4353;SDS011;11018;51.258;6.806;2023-09-19T02:08:42;18.73;;;3.75;;
4353;SDS011;11018;51.258;6.806;2023-09-19T02:11:08;12.40;;;3.30;;
4353;SDS011;11018;51.258;6.806;2023-09-19T02:13:34;15.32;;;3.20;;
4353;SDS011;11018;51.258;6.806;2023-09-19T02:15:59;16.73;;;3.55;;
4353;SDS011;11018;51.258;6.806;2023-09-19T02:18:25;12.70;;;3.70;;
4353;SDS011;11018;51.258;6.806;2023-09-19T02:20:52;12.23;;;3.55;;
4353;SDS011;11018;51.258;6.806;2023-09-19T02:23:19;13.40;;;3.65;;
4353;SDS011;11018;51.258;6.806;2023-09-19T02:25:52;17.90;;;3.75;;
4353;SDS011;11018;51.258;6.806;2023-09-19T02:28:25;14.05;;;3.65;;
4353;SDS011;11018;51.258;6.806;2023-09-19T02:30:55;15.73;;;3.67;;
4353;SDS011;11018;51.258;6.806;2023-09-19T02:33:21;10.88;;;3.33;;
4353;SDS011;11018;51.258;6.806;2023-09-19T02:35:47;18.48;;;3.47;;
4353;SDS011;11018;51.258;6.806;2023-09-19T02:38:13;16.35;;;3.50;;
4353;SDS011;11018;51.258;6.806;2023-09-19T02:40:43;14.40;;;3.78;;
4353;SDS011;11018;51.258;6.806;2023-09-19T02:43:09;14.27;;;3.50;;
4353;SDS011;11018;51.258;6.806;2023-09-19T02:45:34;11.00;;;2.97;;
4353;SDS011;11018;51.258;6.806;2023-09-19T02:48:00;14.53;;;4.00;;
4353;SDS011;11018;51.258;6.806;2023-09-19T02:50:27;13.60;;;3.90;;
4353;SDS011;11018;51.258;6.806;2023-09-19T02:52:52;13.38;;;3.65;;
4353;SDS011;11018;51.258;6.806;2023-09-19T02:55:18;16.63;;;3.53;;
4353;SDS011;11018;51.258;6.806;2023-09-19T02:57:48;12.80;;;3.60;;
4353;SDS011;11018;51.258;6.806;2023-09-19T03:00:23;12.00;;;2.85;;
4353;SDS011;11018;51.258;6.806;2023-09-19T03:05:15;15.10;;;3.80;;
4353;SDS011;11018;51.258;6.806;2023-09-19T03:07:41;17.75;;;3.95;;
4353;SDS011;11018;51.258;6.806;2023-09-19T03:10:08;15.50;;;3.10;;
4353;SDS011;11018;51.258;6.806;2023-09-19T03:12:34;10.85;;;3.22;;
4353;SDS011;11018;51.258;6.806;2023-09-19T03:15:00;20.10;;;3.80;;
4353;SDS011;11018;51.258;6.806;2023-09-19T03:17:26;12.95;;;3.03;;
4353;SDS011;11018;51.258;6.806;2023-09-19T03:19:52;11.53;;;3.27;;
4353;SDS011;11018;51.258;6.806;2023-09-19T03:22:18;14.88;;;3.30;;
4353;SDS011;11018;51.258;6.806;2023-09-19T03:24:44;11.47;;;3.20;;
4353;SDS011;11018;51.258;6.806;2023-09-19T03:27:11;10.95;;;3.40;;
4353;SDS011;11018;51.258;6.806;2023-09-19T03:29:41;18.92;;;3.72;;
4353;SDS011;11018;51.258;6.806;2023-09-19T03:32:07;21.45;;;3.90;;
4353;SDS011;11018;51.258;6.806;2023-09-19T03:34:36;12.77;;;3.17;;
4353;SDS011;11018;51.258;6.806;2023-09-19T03:37:05;14.05;;;3.80;;
4353;SDS011;11018;51.258;6.806;2023-09-19T03:39:31;14.37;;;3.23;;
4353;SDS011;11018;51.258;6.806;2023-09-19T03:41:57;13.73;;;3.58;;
4353;SDS011;11018;51.258;6.806;2023-09-19T03:44:23;11.90;;;3.50;;
4353;SDS011;11018;51.258;6.806;2023-09-19T03:46:48;12.03;;;3.27;;
4353;SDS011;11018;51.258;6.806;2023-09-19T03:49:14;16.58;;;3.40;;
4353;SDS011;11018;51.258;6.806;2023-09-19T03:51:39;15.60;;;3.63;;
4353;SDS011;11018;51.258;6.806;2023-09-19T03:54:06;13.02;;;3.35;;
4353;SDS011;11018;51.258;6.806;2023-09-19T03:56:32;9.63;;;3.17;;
4353;SDS011;11018;51.258;6.806;2023-09-19T03:58:58;17.02;;;3.53;;
4353;SDS011;11018;51.258;6.806;2023-09-19T04:01:24;15.65;;;3.40;;
4353;SDS011;11018;51.258;6.806;2023-09-19T04:03:49;19.40;;;3.70;;
4353;SDS011;11018;51.258;6.806;2023-09-19T04:06:17;22.00;;;3.90;;
4353;SDS011;11018;51.258;6.806;2023-09-19T04:08:43;16.85;;;3.80;;
4353;SDS011;11018;51.258;6.806;2023-09-19T04:11:09;14.60;;;3.13;;
4353;SDS011;11018;51.258;6.806;2023-09-19T04:13:35;16.38;;;3.75;;
4353;SDS011;11018;51.258;6.806;2023-09-19T04:16:01;13.50;;;3.60;;
4353;SDS011;11018;51.258;6.806;2023-09-19T04:18:31;14.23;;;3.93;;
4353;SDS011;11018;51.258;6.806;2023-09-19T04:20:58;16.08;;;3.70;;
4353;SDS011;11018;51.258;6.806;2023-09-19T04:23:24;16.67;;;4.10;;
4353;SDS011;11018;51.258;6.806;2023-09-19T04:25:50;17.73;;;3.83;;
4353;SDS011;11018;51.258;6.806;2023-09-19T04:28:16;17.77;;;3.63;;
4353;SDS011;11018;51.258;6.806;2023-09-19T04:30:41;19.10;;;4.23;;
4353;SDS011;11018;51.258;6.806;2023-09-19T04:33:08;17.35;;;3.80;;
4353;SDS011;11018;51.258;6.806;2023-09-19T04:35:33;17.98;;;3.90;;
4353;SDS011;11018;51.258;6.806;2023-09-19T04:37:59;17.33;;;4.00;;
4353;SDS011;11018;51.258;6.806;2023-09-19T04:40:25;21.98;;;4.82;;
4353;SDS011;11018;51.258;6.806;2023-09-19T04:42:54;14.32;;;3.60;;
4353;SDS011;11018;51.258;6.806;2023-09-19T04:45:24;15.50;;;3.70;;
4353;SDS011;11018;51.258;6.806;2023-09-19T04:47:51;15.27;;;3.83;;
4353;SDS011;11018;51.258;6.806;2023-09-19T04:50:17;13.97;;;3.80;;
4353;SDS011;11018;51.258;6.806;2023-09-19T04:52:43;16.30;;;3.72;;
4353;SDS011;11018;51.258;6.806;2023-09-19T04:55:13;14.93;;;3.30;;
4353;SDS011;11018;51.258;6.806;2023-09-19T04:57:42;19.70;;;4.23;;
4353;SDS011;11018;51.258;6.806;2023-09-19T05:00:10;17.67;;;3.10;;
4353;SDS011;11018;51.258;6.806;2023-09-19T05:02:49;18.05;;;4.00;;
4353;SDS011;11018;51.258;6.806;2023-09-19T05:05:16;17.93;;;3.73;;
4353;SDS011;11018;51.258;6.806;2023-09-19T05:07:45;18.17;;;4.30;;
4353;SDS011;11018;51.258;6.806;2023-09-19T05:10:11;17.35;;;3.58;;
4353;SDS011;11018;51.258;6.806;2023-09-19T05:12:38;18.50;;;3.50;;
4353;SDS011;11018;51.258;6.806;2023-09-19T05:15:04;15.52;;;3.90;;
4353;SDS011;11018;51.258;6.806;2023-09-19T05:17:34;14.18;;;3.97;;
4353;SDS011;11018;51.258;6.806;2023-09-19T05:20:01;16.08;;;3.70;;
4353;SDS011;11018;51.258;6.806;2023-09-19T05:22:40;11.73;;;3.30;;
4353;SDS011;11018;51.258;6.806;2023-09-19T05:25:07;15.13;;;3.60;;
4353;SDS011;11018;51.258;6.806;2023-09-19T05:27:34;15.13;;;3.40;;
4353;SDS011;11018;51.258;6.806;2023-09-19T05:30:00;18.08;;;4.05;;
4353;SDS011;11018;51.258;6.806;2023-09-19T05:32:26;13.60;;;3.50;;
4353;SDS011;11018;51.258;6.806;2023-09-19T05:34:51;16.93;;;3.90;;
4353;SDS011;11018;51.258;6.806;2023-09-19T05:37:18;13.38;;;3.85;;
4353;SDS011;11018;51.258;6.806;2023-09-19T05:39:44;13.90;;;3.80;;
4353;SDS011;11018;51.258;6.806;2023-09-19T05:42:10;19.13;;;6.80;;
4353;SDS011;11018;51.258;6.806;2023-09-19T05:44:35;15.40;;;4.00;;
4353;SDS011;11018;51.258;6.806;2023-09-19T05:47:02;13.05;;;3.78;;
4353;SDS011;11018;51.258;6.806;2023-09-19T05:49:30;17.40;;;4.17;;
4353;SDS011;11018;51.258;6.806;2023-09-19T05:51:56;18.17;;;4.00;;
4353;SDS011;11018;51.258;6.806;2023-09-19T05:54:24;15.90;;;3.75;;
4353;SDS011;11018;51.258;6.806;2023-09-19T05:56:49;22.20;;;4.20;;
4353;SDS011;11018;51.258;6.806;2023-09-19T05:59:18;17.23;;;3.42;;
4353;SDS011;11018;51.258;6.806;2023-09-19T06:01:44;17.17;;;4.23;;
4353;SDS011;11018;51.258;6.806;2023-09-19T06:04:09;15.33;;;3.57;;
4353;SDS011;11018;51.258;6.806;2023-09-19T06:06:35;14.25;;;3.33;;
4353;SDS011;11018;51.258;6.806;2023-09-19T06:09:03;15.73;;;3.40;;
4353;SDS011;11018;51.258;6.806;2023-09-19T06:11:30;14.65;;;3.65;;
4353;SDS011;11018;51.258;6.806;2023-09-19T06:13:59;16.08;;;3.90;;
4353;SDS011;11018;51.258;6.806;2023-09-19T06:16:27;18.83;;;3.90;;
4353;SDS011;11018;51.258;6.806;2023-09-19T06:18:57;15.48;;;3.45;;
4353;SDS011;11018;51.258;6.806;2023-09-19T06:21:24;15.33;;;3.80;;
4353;SDS011;11018;51.258;6.806;2023-09-19T06:23:51;15.18;;;3.70;;
4353;SDS011;11018;51.258;6.806;2023-09-19T06:26:17;16.23;;;3.55;;
4353;SDS011;11018;51.258;6.806;2023-09-19T06:28:43;25.98;;;3.95;;
4353;SDS011;11018;51.258;6.806;2023-09-19T06:31:09;18.17;;;3.77;;
4353;SDS011;11018;51.258;6.806;2023-09-19T06:33:35;15.30;;;3.53;;
4353;SDS011;11018;51.258;6.806;2023-09-19T06:36:04;16.03;;;3.60;;
4353;SDS011;11018;51.258;6.806;2023-09-19T06:38:32;16.13;;;4.00;;
4353;SDS011;11018;51.258;6.806;2023-09-19T06:41:01;16.38;;;3.70;;
4353;SDS011;11018;51.258;6.806;2023-09-19T06:43:29;11.20;;;3.53;;
4353;SDS011;11018;51.258;6.806;2023-09-19T06:45:56;16.92;;;4.35;;
4353;SDS011;11018;51.258;6.806;2023-09-19T06:48:22;17.90;;;3.77;;
4353;SDS011;11018;51.258;6.806;2023-09-19T06:50:50;15.80;;;3.63;;
4353;SDS011;11018;51.258;6.806;2023-09-19T06:53:15;15.70;;;4.23;;
4353;SDS011;11018;51.258;6.806;2023-09-19T06:55:42;18.98;;;3.80;;
4353;SDS011;11018;51.258;6.806;2023-09-19T06:58:09;15.98;;;3.30;;
4353;SDS011;11018;51.258;6.806;2023-09-19T07:00:35;19.48;;;4.60;;
4353;SDS011;11018;51.258;6.806;2023-09-19T07:03:03;15.25;;;3.97;;
4353;SDS011;11018;51.258;6.806;2023-09-19T07:05:39;19.15;;;3.58;;
4353;SDS011;11018;51.258;6.806;2023-09-19T07:08:06;15.68;;;3.40;;
4353;SDS011;11018;51.258;6.806;2023-09-19T07:10:33;14.57;;;3.20;;
4353;SDS011;11018;51.258;6.806;2023-09-19T07:12:59;18.93;;;3.87;;
4353;SDS011;11018;51.258;6.806;2023-09-19T07:15:27;21.83;;;3.60;;
4353;SDS011;11018;51.258;6.806;2023-09-19T07:17:53;21.00;;;4.20;;
4353;SDS011;11018;51.258;6.806;2023-09-19T07:20:21;16.52;;;3.17;;
4353;SDS011;11018;51.258;6.806;2023-09-19T07:22:51;17.30;;;3.55;;
4353;SDS011;11018;51.258;6.806;2023-09-19T07:25:19;17.95;;;4.00;;
4353;SDS011;11018;51.258;6.806;2023-09-19T07:27:46;11.97;;;3.27;;
4353;SDS011;11018;51.258;6.806;2023-09-19T07:30:11;14.20;;;3.27;;
4353;SDS011;11018;51.258;6.806;2023-09-19T07:32:38;10.90;;;3.10;;
4353;SDS011;11018;51.258;6.806;2023-09-19T07:35:04;12.80;;;3.43;;
4353;SDS011;11018;51.258;6.806;2023-09-19T07:37:32;11.82;;;3.58;;
4353;SDS011;11018;51.258;6.806;2023-09-19T07:39:58;19.23;;;3.83;;
4353;SDS011;11018;51.258;6.806;2023-09-19T07:42:25;14.52;;;3.35;;
4353;SDS011;11018;51.258;6.806;2023-09-19T07:44:52;19.50;;;3.65;;
4353;SDS011;11018;51.258;6.806;2023-09-19T07:47:18;18.08;;;3.90;;
4353;SDS011;11018;51.258;6.806;2023-09-19T07:49:48;15.40;;;3.77;;
4353;SDS011;11018;51.258;6.806;2023-09-19T07:52:14;16.05;;;3.35;;
4353;SDS011;11018;51.258;6.806;2023-09-19T07:54:40;14.00;;;3.73;;
4353;SDS011;11018;51.258;6.806;2023-09-19T07:57:06;17.50;;;3.13;;
4353;SDS011;11018;51.258;6.806;2023-09-19T07:59:32;20.20;;;4.00;;
4353;SDS011;11018;51.258;6.806;2023-09-19T08:01:58;13.63;;;3.50;;
4353;SDS011;11018;51.258;6.806;2023-09-19T08:04:23;18.53;;;3.83;;
4353;SDS011;11018;51.258;6.806;2023-09-19T08:06:51;16.27;;;3.40;;
4353;SDS011;11018;51.258;6.806;2023-09-19T08:09:17;13.30;;;3.20;;
4353;SDS011;11018;51.258;6.806;2023-09-19T08:11:46;15.10;;;3.42;;
4353;SDS011;11018;51.258;6.806;2023-09-19T08:14:12;14.18;;;3.60;;
4353;SDS011;11018;51.258;6.806;2023-09-19T08:16:39;16.25;;;3.38;;
4353;SDS011;11018;51.258;6.806;2023-09-19T08:19:05;13.52;;;3.50;;
4353;SDS011;11018;51.258;6.806;2023-09-19T08:21:30;18.80;;;3.67;;
4353;SDS011;11018;51.258;6.806;2023-09-19T08:23:57;17.25;;;4.05;;
4353;SDS011;11018;51.258;6.806;2023-09-19T08:26:22;15.98;;;3.30;;
4353;SDS011;11018;51.258;6.806;2023-09-19T08:28:49;18.93;;;3.73;;
4353;SDS011;11018;51.258;6.806;2023-09-19T08:31:16;14.88;;;3.55;;
4353;SDS011;11018;51.258;6.806;2023-09-19T08:33:42;16.55;;;3.60;;
4353;SDS011;11018;51.258;6.806;2023-09-19T08:36:10;18.33;;;3.28;;
4353;SDS011;11018;51.258;6.806;2023-09-19T08:38:39;15.07;;;3.72;;
4353;SDS011;11018;51.258;6.806;2023-09-19T08:41:05;15.60;;;3.97;;
4353;SDS011;11018;51.258;6.806;2023-09-19T08:43:35;16.92;;;3.88;;
4353;SDS011;11018;51.258;6.806;2023-09-19T08:46:10;13.13;;;3.33;;
4353;SDS011;11018;51.258;6.806;2023-09-19T08:49:12;14.45;;;3.45;;
4353;SDS011;11018;51.258;6.806;2023-09-19T08:51:45;18.27;;;3.70;;
4353;SDS011;11018;51.258;6.806;2023-09-19T08:54:33;15.55;;;3.67;;
4353;SDS011;11018;51.258;6.806;2023-09-19T08:57:04;17.63;;;3.40;;
4353;SDS011;11018;51.258;6.806;2023-09-19T08:59:37;22.50;;;3.80;;
4353;SDS011;11018;51.258;6.806;2023-09-19T09:02:09;13.35;;;3.40;;
4353;SDS011;11018;51.258;6.806;2023-09-19T09:04:39;13.05;;;3.00;;
4353;SDS011;11018;51.258;6.806;2023-09-19T09:07:06;22.20;;;3.50;;
4353;SDS011;11018;51.258;6.806;2023-09-19T09:09:38;12.37;;;3.20;;
4353;SDS011;11018;51.258;6.806;2023-09-19T09:12:08;21.60;;;3.53;;
4353;SDS011;11018;51.258;6.806;2023-09-19T09:14:38;15.38;;;2.97;;
4353;SDS011;11018;51.258;6.806;2023-09-19T09:17:04;12.32;;;3.35;;
4353;SDS011;11018;51.258;6.806;2023-09-19T09:19:30;15.77;;;3.90;;
4353;SDS011;11018;51.258;6.806;2023-09-19T09:22:06;17.77;;;3.45;;
4353;SDS011;11018;51.258;6.806;2023-09-19T09:24:33;18.92;;;3.50;;
4353;SDS011;11018;51.258;6.806;2023-09-19T09:26:59;16.52;;;3.00;;
4353;SDS011;11018;51.258;6.806;2023-09-19T09:29:40;13.40;;;3.10;;
4353;SDS011;11018;51.258;6.806;2023-09-19T09:32:23;13.18;;;2.78;;
4353;SDS011;11018;51.258;6.806;2023-09-19T09:34:56;13.35;;;3.03;;
4353;SDS011;11018;51.258;6.806;2023-09-19T09:37:23;14.75;;;3.60;;
4353;SDS011;11018;51.258;6.806;2023-09-19T09:40:01;15.02;;;3.50;;
4353;SDS011;11018;51.258;6.806;2023-09-19T09:42:40;17.13;;;2.97;;
4353;SDS011;11018;51.258;6.806;2023-09-19T09:47:59;12.18;;;3.40;;
4353;SDS011;11018;51.258;6.806;2023-09-19T09:53:05;17.88;;;3.70;;
4353;SDS011;11018;51.258;6.806;2023-09-19T09:58:27;12.50;;;3.47;;
4353;SDS011;11018;51.258;6.806;2023-09-19T10:00:57;14.65;;;4.60;;
4353;SDS011;11018;51.258;6.806;2023-09-19T10:03:40;15.60;;;3.50;;
4353;SDS011;11018;51.258;6.806;2023-09-19T10:06:09;14.85;;;2.90;;
4353;SDS011;11018;51.258;6.806;2023-09-19T10:09:01;16.17;;;3.10;;
4353;SDS011;11018;51.258;6.806;2023-09-19T10:11:30;16.30;;;3.50;;
4353;SDS011;11018;51.258;6.806;2023-09-19T10:13:57;12.33;;;3.00;;
4353;SDS011;11018;51.258;6.806;2023-09-19T10:16:26;15.93;;;3.13;;
4353;SDS011;11018;51.258;6.806;2023-09-19T10:18:57;18.08;;;3.65;;
4353;SDS011;11018;51.258;6.806;2023-09-19T10:21:26;12.82;;;3.20;;
4353;SDS011;11018;51.258;6.806;2023-09-19T10:23:55;13.65;;;3.40;;
4353;SDS011;11018;51.258;6.806;2023-09-19T10:26:25;12.85;;;3.05;;
4353;SDS011;11018;51.258;6.806;2023-09-19T10:28:56;12.65;;;3.55;;
4353;SDS011;11018;51.258;6.806;2023-09-19T10:31:25;13.63;;;3.67;;
4353;SDS011;11018;51.258;6.806;2023-09-19T10:33:53;9.93;;;2.90;;
4353;SDS011;11018;51.258;6.806;2023-09-19T10:36:23;15.60;;;3.40;;
4353;SDS011;11018;51.258;6.806;2023-09-19T10:38:53;10.52;;;2.97;;
4353;SDS011;11018;51.258;6.806;2023-09-19T10:41:22;17.07;;;3.50;;
4353;SDS011;11018;51.258;6.806;2023-09-19T10:43:49;11.15;;;3.50;;
4353;SDS011;11018;51.258;6.806;2023-09-19T10:46:19;13.82;;;3.15;;
4353;SDS011;11018;51.258;6.806;2023-09-19T10:48:45;12.63;;;3.30;;
4353;SDS011;11018;51.258;6.806;2023-09-19T10:51:18;10.93;;;2.83;;
4353;SDS011;11018;51.258;6.806;2023-09-19T10:54:05;12.52;;;4.07;;
4353;SDS011;11018;51.258;6.806;2023-09-19T10:56:53;12.93;;;3.17;;
4353;SDS011;11018;51.258;6.806;2023-09-19T10:59:20;10.57;;;3.03;;
4353;SDS011;11018;51.258;6.806;2023-09-19T11:01:47;14.73;;;3.08;;
4353;SDS011;11018;51.258;6.806;2023-09-19T11:04:37;13.75;;;3.10;;
4353;SDS011;11018;51.258;6.806;2023-09-19T11:07:05;19.00;;;3.35;;
4353;SDS011;11018;51.258;6.806;2023-09-19T11:14:57;13.43;;;3.50;;
4353;SDS011;11018;51.258;6.806;2023-09-19T11:17:29;12.95;;;3.30;;
4353;SDS011;11018;51.258;6.806;2023-09-19T11:36:01;11.90;;;3.08;;
4353;SDS011;11018;51.258;6.806;2023-09-19T11:43:46;10.95;;;3.00;;
4353;SDS011;11018;51.258;6.806;2023-09-19T11:46:16;11.88;;;3.10;;
4353;SDS011;11018;51.258;6.806;2023-09-19T11:48:47;9.10;;;2.70;;
4353;SDS011;11018;51.258;6.806;2023-09-19T11:51:15;11.77;;;3.15;;
4353;SDS011;11018;51.258;6.806;2023-09-19T11:54:04;15.23;;;3.30;;
4353;SDS011;11018;51.258;6.806;2023-09-19T11:56:40;12.15;;;3.22;;
4353;SDS011;11018;51.258;6.806;2023-09-19T11:59:07;13.03;;;3.17;;
4353;SDS011;11018;51.258;6.806;2023-09-19T12:01:33;9.70;;;2.70;;
4353;SDS011;11018;51.258;6.806;2023-09-19T12:04:00;18.20;;;3.20;;
4353;SDS011;11018;51.258;6.806;2023-09-19T12:06:29;7.82;;;2.40;;
4353;SDS011;11018;51.258;6.806;2023-09-19T12:08:57;12.23;;;2.80;;
4353;SDS011;11018;51.258;6.806;2023-09-19T12:11:27;13.90;;;2.90;;
4353;SDS011;11018;51.258;6.806;2023-09-19T12:13:58;13.23;;;3.30;;
4353;SDS011;11018;51.258;6.806;2023-09-19T12:16:26;9.55;;;2.75;;
4353;SDS011;11018;51.258;6.806;2023-09-19T12:18:55;10.40;;;2.88;;
4353;SDS011;11018;51.258;6.806;2023-09-19T12:24:04;11.85;;;3.25;;
4353;SDS011;11018;51.258;6.806;2023-09-19T12:26:38;9.60;;;2.80;;
4353;SDS011;11018;51.258;6.806;2023-09-19T12:29:14;7.17;;;2.70;;
4353;SDS011;11018;51.258;6.806;2023-09-19T12:32:02;13.95;;;2.90;;
4353;SDS011;11018;51.258;6.806;2023-09-19T12:34:29;11.55;;;2.65;;
4353;SDS011;11018;51.258;6.806;2023-09-19T12:39:41;10.65;;;2.60;;
4353;SDS011;11018;51.258;6.806;2023-09-19T12:42:09;11.23;;;2.80;;
4353;SDS011;11018;51.258;6.806;2023-09-19T12:44:38;8.82;;;2.58;;
4353;SDS011;11018;51.258;6.806;2023-09-19T12:47:10;11.07;;;2.60;;
4353;SDS011;11018;51.258;6.806;2023-09-19T12:50:04;6.20;;;2.60;;
4353;SDS011;11018;51.258;6.806;2023-09-19T12:52:50;8.85;;;2.65;;
4353;SDS011;11018;51.258;6.806;2023-09-19T12:55:20;5.75;;;2.30;;
4353;SDS011;11018;51.258;6.806;2023-09-19T13:00:39;8.93;;;2.20;;
4353;SDS011;11018;51.258;6.806;2023-09-19T13:03:13;7.10;;;2.65;;
4353;SDS011;11018;51.258;6.806;2023-09-19T13:05:47;8.30;;;2.53;;
4353;SDS011;11018;51.258;6.806;2023-09-19T13:08:26;11.30;;;2.63;;
4353;SDS011;11018;51.258;6.806;2023-09-19T13:25:17;8.18;;;2.03;;
4353;SDS011;11018;51.258;6.806;2023-09-19T13:27:44;4.20;;;1.60;;
4353;SDS011;11018;51.258;6.806;2023-09-19T13:30:21;7.93;;;2.10;;
4353;SDS011;11018;51.258;6.806;2023-09-19T13:32:51;6.32;;;2.22;;
4353;SDS011;11018;51.258;6.806;2023-09-19T13:35:18;7.60;;;2.10;;
4353;SDS011;11018;51.258;6.806;2023-09-19T13:37:44;9.73;;;2.10;;
4353;SDS011;11018;51.258;6.806;2023-09-19T13:40:14;9.98;;;2.20;;
4353;SDS011;11018;51.258;6.806;2023-09-19T13:42:41;6.88;;;2.10;;
4353;SDS011;11018;51.258;6.806;2023-09-19T13:45:07;7.55;;;1.80;;
4353;SDS011;11018;51.258;6.806;2023-09-19T13:47:37;5.85;;;1.80;;
4353;SDS011;11018;51.258;6.806;2023-09-19T13:50:04;7.07;;;1.77;;
4353;SDS011;11018;51.258;6.806;2023-09-19T13:52:30;6.43;;;1.85;;
4353;SDS011;11018;51.258;6.806;2023-09-19T13:54:56;9.27;;;1.73;;
4353;SDS011;11018;51.258;6.806;2023-09-19T13:57:23;8.95;;;1.85;;
4353;SDS011;11018;51.258;6.806;2023-09-19T13:59:49;6.10;;;1.60;;
4353;SDS011;11018;51.258;6.806;2023-09-19T14:02:16;7.57;;;1.95;;
4353;SDS011;11018;51.258;6.806;2023-09-19T14:04:43;6.05;;;1.70;;
4353;SDS011;11018;51.258;6.806;2023-09-19T14:07:09;6.18;;;1.85;;
4353;SDS011;11018;51.258;6.806;2023-09-19T14:09:35;8.70;;;1.90;;
4353;SDS011;11018;51.258;6.806;2023-09-19T14:12:01;7.20;;;1.53;;
4353;SDS011;11018;51.258;6.806;2023-09-19T14:14:27;7.07;;;2.20;;
4353;SDS011;11018;51.258;6.806;2023-09-19T14:16:53;3.28;;;1.40;;
4353;SDS011;11018;51.258;6.806;2023-09-19T14:19:19;5.63;;;1.70;;
4353;SDS011;11018;51.258;6.806;2023-09-19T14:21:44;7.63;;;1.60;;
4353;SDS011;11018;51.258;6.806;2023-09-19T14:24:10;11.60;;;2.00;;
4353;SDS011;11018;51.258;6.806;2023-09-19T14:26:37;9.07;;;1.60;;
4353;SDS011;11018;51.258;6.806;2023-09-19T14:29:03;7.28;;;1.67;;
4353;SDS011;11018;51.258;6.806;2023-09-19T14:31:28;7.32;;;1.45;;
4353;SDS011;11018;51.258;6.806;2023-09-19T14:33:54;9.02;;;1.70;;
4353;SDS011;11018;51.258;6.806;2023-09-19T14:36:21;8.00;;;1.65;;
4353;SDS011;11018;51.258;6.806;2023-09-19T14:38:47;10.50;;;1.80;;
4353;SDS011;11018;51.258;6.806;2023-09-19T14:41:19;3.55;;;1.50;;
4353;SDS011;11018;51.258;6.806;2023-09-19T14:43:44;10.30;;;3.60;;
4353;SDS011;11018;51.258;6.806;2023-09-19T14:46:10;8.77;;;1.70;;
4353;SDS011;11018;51.258;6.806;2023-09-19T14:48:36;5.80;;;1.70;;
4353;SDS011;11018;51.258;6.806;2023-09-19T14:51:05;8.30;;;1.88;;
4353;SDS011;11018;51.258;6.806;2023-09-19T14:53:34;8.38;;;1.88;;
4353;SDS011;11018;51.258;6.806;2023-09-19T14:56:07;7.60;;;1.88;;
4353;SDS011;11018;51.258;6.806;2023-09-19T14:58:33;4.10;;;1.40;;
4353;SDS011;11018;51.258;6.806;2023-09-19T15:01:07;7.03;;;1.70;;
4353;SDS011;11018;51.258;6.806;2023-09-19T15:03:35;6.50;;;1.50;;
4353;SDS011;11018;51.258;6.806;2023-09-19T15:06:04;8.93;;;1.50;;
4353;SDS011;11018;51.258;6.806;2023-09-19T15:08:35;5.30;;;1.40;;
4353;SDS011;11018;51.258;6.806;2023-09-19T15:11:03;10.48;;;1.50;;
4353;SDS011;11018;51.258;6.806;2023-09-19T15:13:30;9.45;;;1.77;;
4353;SDS011;11018;51.258;6.806;2023-09-19T15:15:59;4.25;;;1.65;;
4353;SDS011;11018;51.258;6.806;2023-09-19T15:18:26;8.18;;;1.67;;
4353;SDS011;11018;51.258;6.806;2023-09-19T15:20:52;6.68;;;1.58;;
4353;SDS011;11018;51.258;6.806;2023-09-19T15:23:18;5.82;;;1.65;;
4353;SDS011;11018;51.258;6.806;2023-09-19T15:25:50;7.72;;;1.20;;
4353;SDS011;11018;51.258;6.806;2023-09-19T15:28:16;6.88;;;1.50;;
4353;SDS011;11018;51.258;6.806;2023-09-19T15:30:42;6.82;;;1.60;;
4353;SDS011;11018;51.258;6.806;2023-09-19T15:33:07;4.90;;;1.53;;
4353;SDS011;11018;51.258;6.806;2023-09-19T15:35:33;8.00;;;1.70;;
4353;SDS011;11018;51.258;6.806;2023-09-19T15:37:58;4.10;;;1.58;;
4353;SDS011;11018;51.258;6.806;2023-09-19T15:40:25;12.63;;;1.73;;
4353;SDS011;11018;51.258;6.806;2023-09-19T15:42:52;4.30;;;1.40;;
4353;SDS011;11018;51.258;6.806;2023-09-19T15:45:19;5.60;;;1.70;;
4353;SDS011;11018;51.258;6.806;2023-09-19T15:47:44;5.20;;;1.63;;
4353;SDS011;11018;51.258;6.806;2023-09-19T15:50:10;5.77;;;1.50;;
4353;SDS011;11018;51.258;6.806;2023-09-19T15:52:39;5.07;;;1.30;;
4353;SDS011;11018;51.258;6.806;2023-09-19T15:55:05;3.20;;;1.35;;
4353;SDS011;11018;51.258;6.806;2023-09-19T15:57:36;6.95;;;1.60;;
4353;SDS011;11018;51.258;6.806;2023-09-19T16:00:02;6.82;;;1.90;;
4353;SDS011;11018;51.258;6.806;2023-09-19T16:02:32;10.60;;;2.00;;
4353;SDS011;11018;51.258;6.806;2023-09-19T16:04:57;7.07;;;1.90;;
4353;SDS011;11018;51.258;6.806;2023-09-19T16:07:23;5.37;;;1.50;;
4353;SDS011;11018;51.258;6.806;2023-09-19T16:09:49;7.03;;;1.60;;
4353;SDS011;11018;51.258;6.806;2023-09-19T16:12:14;6.00;;;2.10;;
4353;SDS011;11018;51.258;6.806;2023-09-19T16:14:40;7.93;;;1.90;;
4353;SDS011;11018;51.258;6.806;2023-09-19T16:17:05;4.90;;;1.70;;